createdAt,value
2023-03-03T00:00:42.440Z,19.07
2023-03-03T00:03:21.777Z,17.63
2023-03-03T00:05:48.877Z,18.27
2023-03-03T00:08:15.806Z,17.83
2023-03-03T00:10:41.943Z,17.93
2023-03-03T00:13:20.245Z,18.33
2023-03-03T00:15:47.850Z,18.53
2023-03-03T00:18:34.485Z,18.77
2023-03-03T00:21:02.256Z,18.80
2023-03-03T00:23:35.978Z,19.77
2023-03-03T00:26:05.188Z,17.83
2023-03-03T00:28:43.692Z,18.67
2023-03-03T00:31:19.596Z,17.73
2023-03-03T00:33:53.917Z,17.97
2023-03-03T00:36:27.961Z,18.73
2023-03-03T00:38:57.270Z,18.70
2023-03-03T00:41:26.100Z,18.33
2023-03-03T00:43:53.762Z,18.43
2023-03-03T00:46:22.298Z,18.77
2023-03-03T00:48:50.304Z,20.10
2023-03-03T00:51:22.477Z,18.83
2023-03-03T00:53:50.124Z,18.60
2023-03-03T00:56:16.598Z,19.37
2023-03-03T00:58:47.393Z,19.60
2023-03-03T01:01:17.260Z,19.20
2023-03-03T01:03:47.849Z,19.60
2023-03-03T01:06:14.602Z,17.97
2023-03-03T01:08:41.041Z,19.77
2023-03-03T01:11:15.833Z,18.63
2023-03-03T01:13:46.448Z,18.60
2023-03-03T01:16:12.903Z,20.13
2023-03-03T01:18:41.130Z,18.93
2023-03-03T01:21:08.662Z,20.67
2023-03-03T01:23:35.387Z,21.03
2023-03-03T01:26:01.742Z,20.93
2023-03-03T01:28:28.163Z,20.63
2023-03-03T01:30:54.438Z,20.10
2023-03-03T01:33:20.951Z,18.80
2023-03-03T01:35:47.942Z,19.47
2023-03-03T01:38:15.243Z,18.80
2023-03-03T01:40:41.556Z,19.83
2023-03-03T01:43:08.028Z,19.27
2023-03-03T01:45:42.935Z,21.13
2023-03-03T01:48:36.860Z,18.57
2023-03-03T01:51:22.338Z,20.40
2023-03-03T01:53:52.228Z,19.03
2023-03-03T01:56:18.605Z,21.37
2023-03-03T01:58:52.394Z,19.03
2023-03-03T02:01:22.303Z,19.37
2023-03-03T02:03:49.844Z,17.60
2023-03-03T02:06:19.524Z,17.60
2023-03-03T02:08:53.378Z,17.53
2023-03-03T02:11:21.720Z,15.70
2023-03-03T02:13:48.353Z,15.43
2023-03-03T02:16:15.719Z,15.33
2023-03-03T02:18:42.405Z,14.30
2023-03-03T02:21:16.021Z,15.13
2023-03-03T02:23:59.479Z,15.13
2023-03-03T02:26:28.276Z,15.63
2023-03-03T02:29:00.248Z,14.27
2023-03-03T02:31:29.965Z,14.70
2023-03-03T02:33:57.044Z,14.93
2023-03-03T02:36:33.039Z,13.90
2023-03-03T02:39:19.609Z,13.83
2023-03-03T02:42:04.690Z,13.37
2023-03-03T02:44:37.968Z,13.40
2023-03-03T02:47:04.704Z,15.60
2023-03-03T02:49:33.658Z,14.87
2023-03-03T02:52:01.595Z,13.43
2023-03-03T02:54:30.244Z,13.43
2023-03-03T02:56:58.600Z,13.77
2023-03-03T02:59:26.716Z,13.23
2023-03-03T03:01:54.919Z,14.37
2023-03-03T03:04:26.442Z,13.70
2023-03-03T03:06:54.391Z,12.80
2023-03-03T03:09:24.187Z,13.80
2023-03-03T03:11:52.030Z,13.63
2023-03-03T03:14:22.662Z,14.83
2023-03-03T03:16:49.395Z,17.07
2023-03-03T03:19:15.866Z,16.20
2023-03-03T03:21:43.602Z,20.00
2023-03-03T03:24:10.738Z,20.90
2023-03-03T03:26:40.937Z,18.50
2023-03-03T03:29:07.791Z,18.63
2023-03-03T03:31:34.089Z,17.87
2023-03-03T03:34:02.859Z,20.23
2023-03-03T03:36:29.685Z,20.23
2023-03-03T03:38:56.542Z,20.33
2023-03-03T03:41:22.713Z,19.63
2023-03-03T03:43:49.290Z,18.30
2023-03-03T03:46:15.839Z,17.67
2023-03-03T03:48:43.192Z,17.60
2023-03-03T03:51:12.151Z,15.93
2023-03-03T03:53:39.692Z,16.07
2023-03-03T03:56:06.320Z,16.60
2023-03-03T03:58:33.334Z,16.00
2023-03-03T04:01:05.044Z,16.23
2023-03-03T04:03:33.889Z,17.43
2023-03-03T04:06:01.153Z,16.30
2023-03-03T04:08:27.864Z,16.17
2023-03-03T04:10:54.239Z,16.60
2023-03-03T04:13:21.323Z,14.90
2023-03-03T04:15:47.678Z,14.23
2023-03-03T04:18:14.319Z,13.07
2023-03-03T04:20:41.184Z,14.33
2023-03-03T04:23:08.013Z,15.23
2023-03-03T04:25:34.274Z,14.63
2023-03-03T04:28:03.951Z,15.33
2023-03-03T04:30:32.612Z,15.97
2023-03-03T04:32:59.353Z,14.70
2023-03-03T04:35:26.852Z,15.00
2023-03-03T04:37:53.662Z,15.17
2023-03-03T04:40:20.288Z,14.60
2023-03-03T04:42:49.627Z,15.67
2023-03-03T04:45:16.145Z,15.57
2023-03-03T04:47:44.612Z,15.27
2023-03-03T04:50:11.729Z,13.27
2023-03-03T04:52:38.426Z,12.17
2023-03-03T04:55:09.311Z,12.70
2023-03-03T04:57:37.454Z,11.50
2023-03-03T05:00:05.905Z,11.67
2023-03-03T05:02:32.598Z,12.00
2023-03-03T05:04:59.477Z,12.63
2023-03-03T05:07:26.035Z,11.43
2023-03-03T05:09:52.196Z,12.50
2023-03-03T05:12:19.443Z,12.97
2023-03-03T05:14:45.776Z,11.43
2023-03-03T05:17:12.506Z,11.20
2023-03-03T05:19:38.856Z,11.70
2023-03-03T05:22:05.029Z,11.97
2023-03-03T05:24:31.584Z,11.47
2023-03-03T05:26:57.964Z,12.37
2023-03-03T05:29:24.429Z,9.90
2023-03-03T05:31:50.609Z,11.10
2023-03-03T05:34:17.123Z,9.63
2023-03-03T05:36:43.487Z,10.07
2023-03-03T05:39:10.239Z,10.50
2023-03-03T05:41:36.723Z,11.00
2023-03-03T05:44:03.761Z,11.13
2023-03-03T05:46:30.179Z,11.40
2023-03-03T05:48:57.024Z,10.73
2023-03-03T05:51:23.342Z,11.83
2023-03-03T05:53:50.209Z,11.23
2023-03-03T05:56:17.071Z,9.70
2023-03-03T05:58:43.809Z,11.23
2023-03-03T06:01:11.090Z,9.63
2023-03-03T06:03:38.113Z,10.57
2023-03-03T06:06:04.635Z,10.67
2023-03-03T06:08:32.019Z,10.20
2023-03-03T06:10:58.548Z,12.10
2023-03-03T06:13:25.292Z,10.90
2023-03-03T06:15:51.640Z,9.90
2023-03-03T06:18:18.317Z,9.87
2023-03-03T06:20:44.566Z,9.47
2023-03-03T06:23:11.035Z,9.20
2023-03-03T06:25:38.591Z,8.80
2023-03-03T06:28:05.128Z,10.00
2023-03-03T06:30:31.617Z,9.83
2023-03-03T06:32:58.339Z,12.83
2023-03-03T06:35:24.529Z,11.20
2023-03-03T06:37:51.477Z,11.03
2023-03-03T06:40:17.801Z,10.20
2023-03-03T06:42:44.353Z,8.87
2023-03-03T06:45:11.022Z,7.90
2023-03-03T06:47:37.731Z,7.90
2023-03-03T06:50:04.392Z,7.67
2023-03-03T06:52:30.907Z,7.83
2023-03-03T06:55:00.142Z,7.23
2023-03-03T06:57:32.152Z,8.23
2023-03-03T07:00:19.867Z,6.87
2023-03-03T07:02:53.039Z,6.90
2023-03-03T07:05:19.583Z,8.23
2023-03-03T07:07:46.164Z,7.07
2023-03-03T07:10:23.087Z,6.40
2023-03-03T07:12:49.993Z,8.03
2023-03-03T07:15:35.186Z,7.70
2023-03-03T07:18:02.652Z,7.87
2023-03-03T07:20:36.081Z,7.23
2023-03-03T07:23:20.290Z,7.87
2023-03-03T07:25:47.824Z,8.50
2023-03-03T07:28:29.362Z,8.00
2023-03-03T07:30:57.448Z,7.93
2023-03-03T07:33:28.233Z,9.77
2023-03-03T07:35:57.176Z,7.70
2023-03-03T07:38:45.076Z,9.23
2023-03-03T07:41:20.284Z,9.83
2023-03-03T07:44:09.425Z,9.63
2023-03-03T07:46:44.430Z,7.97
2023-03-03T07:49:35.063Z,9.03
2023-03-03T07:52:22.774Z,10.53
2023-03-03T07:54:50.033Z,9.63
2023-03-03T07:57:50.927Z,10.40
2023-03-03T08:00:17.461Z,9.13
2023-03-03T08:02:51.467Z,10.60
2023-03-03T08:05:47.669Z,9.07
2023-03-03T08:08:17.255Z,9.63
2023-03-03T08:10:48.119Z,10.17
2023-03-03T08:13:21.691Z,9.77
2023-03-03T08:16:02.783Z,11.07
2023-03-03T08:18:35.466Z,10.43
2023-03-03T08:21:24.020Z,9.80
2023-03-03T08:23:52.808Z,10.37
2023-03-03T08:26:21.242Z,12.07
2023-03-03T08:28:47.796Z,10.57
2023-03-03T08:31:24.888Z,11.40
2023-03-03T08:33:58.371Z,12.03
2023-03-03T08:36:25.078Z,11.00
2023-03-03T08:38:52.152Z,10.83
2023-03-03T08:41:18.617Z,12.63
2023-03-03T08:43:44.978Z,11.07
2023-03-03T08:46:12.155Z,10.80
2023-03-03T08:48:40.494Z,10.00
2023-03-03T08:51:32.943Z,10.00
2023-03-03T08:53:59.993Z,10.03
2023-03-03T08:56:26.218Z,10.20
2023-03-03T08:59:02.219Z,9.00
2023-03-03T09:01:32.043Z,9.47
2023-03-03T09:03:59.225Z,9.67
2023-03-03T09:06:25.665Z,8.63
2023-03-03T09:08:54.298Z,9.07
2023-03-03T09:11:27.064Z,9.20
2023-03-03T09:14:27.401Z,9.13
2023-03-03T09:16:56.140Z,9.50
2023-03-03T09:19:22.768Z,8.50
2023-03-03T09:21:51.460Z,9.07
2023-03-03T09:24:35.497Z,9.13
2023-03-03T09:27:02.397Z,9.00
2023-03-03T09:29:30.952Z,10.13
2023-03-03T09:32:08.211Z,11.07
2023-03-03T09:34:42.412Z,10.27
2023-03-03T09:37:22.551Z,9.17
2023-03-03T09:39:55.070Z,9.80
2023-03-03T09:42:59.975Z,9.97
2023-03-03T09:45:45.524Z,9.33
2023-03-03T09:48:22.328Z,10.10
2023-03-03T09:50:54.975Z,10.47
2023-03-03T09:53:50.859Z,9.03
2023-03-03T09:56:33.331Z,9.17
2023-03-03T09:59:29.790Z,9.80
2023-03-03T10:02:33.768Z,9.97
2023-03-03T10:05:14.432Z,9.33
2023-03-03T10:07:59.833Z,9.57
2023-03-03T10:10:36.588Z,10.17
2023-03-03T10:13:36.775Z,8.93
2023-03-03T10:16:31.482Z,9.17
2023-03-03T10:19:01.780Z,9.73
2023-03-03T10:21:36.606Z,9.20
2023-03-03T10:24:27.980Z,9.20
2023-03-03T10:27:13.752Z,9.83
2023-03-03T10:29:40.682Z,9.70
2023-03-03T10:32:32.245Z,10.80
2023-03-03T10:35:31.567Z,9.50
2023-03-03T10:38:22.093Z,10.07
2023-03-03T10:41:28.082Z,11.07
2023-03-03T10:43:57.877Z,12.43
2023-03-03T10:46:54.519Z,11.37
2023-03-03T10:49:32.361Z,10.13
2023-03-03T10:52:02.078Z,10.90
2023-03-03T10:54:56.390Z,10.87
2023-03-03T10:57:55.905Z,11.07
2023-03-03T11:00:30.475Z,9.70
2023-03-03T11:03:31.002Z,10.17
2023-03-03T11:06:00.390Z,10.77
2023-03-03T11:08:34.586Z,10.60
2023-03-03T11:11:21.112Z,10.70
2023-03-03T11:14:10.344Z,10.90
2023-03-03T11:16:46.553Z,11.00
2023-03-03T11:19:35.064Z,10.80
2023-03-03T11:22:28.581Z,10.20
2023-03-03T11:25:11.172Z,10.60
2023-03-03T11:27:40.133Z,10.27
2023-03-03T11:30:06.556Z,10.50
2023-03-03T11:32:45.047Z,10.13
2023-03-03T11:35:23.845Z,10.90
2023-03-03T11:38:05.302Z,11.13
2023-03-03T11:40:45.180Z,10.10
2023-03-03T11:43:44.180Z,9.73
2023-03-03T11:46:31.497Z,10.10
2023-03-03T11:49:21.510Z,10.50
2023-03-03T11:52:06.740Z,10.20
2023-03-03T11:54:50.762Z,9.43
2023-03-03T11:57:36.225Z,11.50
2023-03-03T12:00:15.465Z,9.67
2023-03-03T12:03:03.915Z,9.60
2023-03-03T12:06:01.549Z,9.60
2023-03-03T12:09:08.571Z,9.60
2023-03-03T12:11:43.739Z,11.10
2023-03-03T12:14:55.582Z,10.00
2023-03-03T12:17:55.046Z,9.23
2023-03-03T12:21:11.396Z,8.50
2023-03-03T12:24:24.596Z,9.43
2023-03-03T12:27:34.946Z,8.53
2023-03-03T12:30:15.492Z,9.13
2023-03-03T12:33:02.835Z,9.77
2023-03-03T12:35:52.665Z,8.07
2023-03-03T12:38:41.119Z,9.07
2023-03-03T12:42:04.428Z,8.30
2023-03-03T12:45:14.937Z,8.60
2023-03-03T12:48:01.039Z,8.30
2023-03-03T12:51:39.116Z,8.30
2023-03-03T12:55:19.838Z,9.27
2023-03-03T12:58:24.938Z,9.13
2023-03-03T13:01:35.602Z,8.97
2023-03-03T13:04:51.325Z,7.80
2023-03-03T13:08:39.320Z,7.23
2023-03-03T13:15:10.637Z,8.77
2023-03-03T13:18:15.323Z,8.20
2023-03-03T13:20:52.306Z,7.10
2023-03-03T13:23:43.131Z,7.70
2023-03-03T13:26:39.004Z,7.07
2023-03-03T13:29:15.278Z,6.80
2023-03-03T13:36:17.871Z,7.13
2023-03-03T13:38:51.508Z,6.40
2023-03-03T13:41:28.941Z,7.13
2023-03-03T13:44:09.132Z,6.93
2023-03-03T13:46:40.047Z,7.60
2023-03-03T13:49:24.880Z,7.60
2023-03-03T13:52:01.895Z,6.93
2023-03-03T13:54:37.712Z,8.10
2023-03-03T13:57:39.326Z,7.50
2023-03-03T14:00:33.547Z,7.07
2023-03-03T14:03:28.582Z,8.23
2023-03-03T14:06:04.513Z,6.37
2023-03-03T14:08:58.640Z,6.67
2023-03-03T14:11:31.678Z,8.23
2023-03-03T14:13:58.008Z,11.33
2023-03-03T14:16:46.632Z,7.53
2023-03-03T14:19:19.769Z,7.90
2023-03-03T14:22:05.291Z,7.33
2023-03-03T14:24:31.801Z,7.63
2023-03-03T14:26:59.981Z,8.00
2023-03-03T14:29:39.375Z,10.63
2023-03-03T14:32:25.149Z,8.27
2023-03-03T14:35:00.830Z,8.57
2023-03-03T14:37:41.435Z,6.80
2023-03-03T14:40:19.849Z,8.43
2023-03-03T14:42:58.734Z,10.73
2023-03-03T14:45:41.639Z,8.37
2023-03-03T14:48:17.788Z,8.47
2023-03-03T14:51:00.232Z,7.67
2023-03-03T14:53:42.318Z,7.93
2023-03-03T14:56:33.617Z,6.63
2023-03-03T14:59:19.468Z,8.37
2023-03-03T15:01:46.724Z,7.67
2023-03-03T15:04:16.486Z,8.77
2023-03-03T15:06:50.844Z,9.93
2023-03-03T15:09:42.078Z,8.10
2023-03-03T15:12:39.954Z,8.17
2023-03-03T15:15:07.028Z,9.10
2023-03-03T15:17:54.184Z,7.70
2023-03-03T15:20:31.481Z,7.33
2023-03-03T15:23:23.787Z,8.80
2023-03-03T15:26:11.928Z,8.77
2023-03-03T15:29:09.044Z,7.47
2023-03-03T15:32:11.553Z,8.57
2023-03-03T15:34:59.198Z,9.63
2023-03-03T15:37:44.040Z,8.33
2023-03-03T15:40:37.807Z,9.70
2023-03-03T15:43:44.201Z,9.40
2023-03-03T15:46:30.917Z,10.83
2023-03-03T15:49:06.512Z,9.00
2023-03-03T15:52:21.809Z,9.80
2023-03-03T15:55:10.340Z,9.80
2023-03-03T15:57:55.602Z,8.93
2023-03-03T16:00:47.894Z,10.13
2023-03-03T16:03:25.873Z,9.37
2023-03-03T16:05:57.125Z,9.40
2023-03-03T16:08:51.718Z,8.37
2023-03-03T16:11:25.620Z,9.50
2023-03-03T16:14:15.156Z,9.57
2023-03-03T16:16:59.865Z,8.60
2023-03-03T16:19:37.077Z,9.13
2023-03-03T16:22:32.999Z,10.63
2023-03-03T16:25:18.193Z,9.50
2023-03-03T16:27:47.770Z,8.97
2023-03-03T16:30:36.027Z,9.20
2023-03-03T16:33:18.972Z,9.37
2023-03-03T16:35:51.304Z,10.17
2023-03-03T16:38:20.877Z,10.13
2023-03-03T16:40:57.807Z,10.50
2023-03-03T16:43:50.569Z,11.40
2023-03-03T16:46:41.156Z,11.83
2023-03-03T16:49:26.564Z,11.63
2023-03-03T16:52:16.317Z,10.80
2023-03-03T16:55:14.804Z,11.03
2023-03-03T16:58:19.287Z,11.07
2023-03-03T17:00:55.164Z,10.33
2023-03-03T17:03:59.130Z,11.53
2023-03-03T17:06:40.571Z,10.27
2023-03-03T17:09:06.710Z,10.43
2023-03-03T17:11:41.974Z,11.13
2023-03-03T17:14:14.311Z,9.63
2023-03-03T17:17:22.314Z,10.30
2023-03-03T17:20:07.944Z,11.47
2023-03-03T17:22:53.984Z,12.20
2023-03-03T17:25:41.272Z,11.73
2023-03-03T17:28:20.041Z,11.50
2023-03-03T17:31:11.434Z,11.30
2023-03-03T17:33:40.956Z,11.07
2023-03-03T17:36:28.938Z,10.63
2023-03-03T17:39:33.871Z,11.80
2023-03-03T17:42:06.590Z,12.07
2023-03-03T17:44:38.885Z,12.47
2023-03-03T17:47:11.686Z,12.27
2023-03-03T17:49:56.914Z,12.70
2023-03-03T17:52:38.353Z,11.87
2023-03-03T17:55:30.009Z,10.83
2023-03-03T17:58:18.156Z,12.63
2023-03-03T18:01:00.014Z,13.50
2023-03-03T18:03:44.973Z,12.13
2023-03-03T18:06:23.899Z,12.10
2023-03-03T18:09:28.566Z,14.73
2023-03-03T18:12:17.294Z,12.97
2023-03-03T18:14:43.445Z,13.03
2023-03-03T18:17:09.908Z,14.10
2023-03-03T18:20:07.500Z,14.80
2023-03-03T18:22:45.041Z,14.13
2023-03-03T18:25:14.700Z,13.77
2023-03-03T18:27:46.583Z,14.53
2023-03-03T18:30:32.514Z,17.37
2023-03-03T18:33:08.545Z,14.77
2023-03-03T18:35:39.078Z,13.00
2023-03-03T18:38:14.880Z,12.53
2023-03-03T18:41:02.987Z,13.60
2023-03-03T18:43:43.335Z,13.10
2023-03-03T18:46:22.111Z,12.43
2023-03-03T18:49:05.266Z,13.23
2023-03-03T18:52:12.462Z,12.50
2023-03-03T18:54:40.613Z,12.10
2023-03-03T18:57:16.815Z,11.77
2023-03-03T18:59:54.921Z,13.10
2023-03-03T19:02:27.663Z,11.77
2023-03-03T19:05:08.309Z,11.23
2023-03-03T19:07:41.114Z,12.53
2023-03-03T19:10:20.018Z,11.47
2023-03-03T19:12:46.995Z,10.23
2023-03-03T19:15:28.998Z,10.73
2023-03-03T19:18:18.005Z,10.40
2023-03-03T19:21:37.428Z,9.50
2023-03-03T19:24:43.804Z,10.93
2023-03-03T19:27:33.267Z,10.13
2023-03-03T19:33:52.907Z,9.43
2023-03-03T19:36:54.314Z,10.13
2023-03-03T19:39:21.774Z,11.00
2023-03-03T19:41:59.874Z,10.50
2023-03-03T19:44:40.527Z,11.53
2023-03-03T19:47:31.032Z,13.50
2023-03-03T19:50:23.148Z,12.90
2023-03-03T19:53:02.091Z,13.97
2023-03-03T19:56:12.684Z,11.77
2023-03-03T19:59:20.028Z,12.27
2023-03-03T20:02:18.533Z,14.23
2023-03-03T20:05:15.652Z,14.57
2023-03-03T20:07:58.049Z,14.97
2023-03-03T20:10:33.602Z,13.53
2023-03-03T20:13:39.915Z,14.07
2023-03-03T20:16:27.060Z,14.93
2023-03-03T20:19:08.794Z,14.63
2023-03-03T20:22:11.465Z,16.33
2023-03-03T20:25:41.540Z,14.17
2023-03-03T20:28:44.408Z,13.57
2023-03-03T20:31:42.191Z,10.73
2023-03-03T20:34:13.579Z,12.73
2023-03-03T20:36:55.379Z,12.60
2023-03-03T20:39:47.223Z,12.17
2023-03-03T20:42:38.050Z,11.40
2023-03-03T20:45:31.517Z,11.60
2023-03-03T20:48:26.072Z,11.70
2023-03-03T20:50:55.563Z,11.97
2023-03-03T20:53:34.276Z,10.90
2023-03-03T20:56:09.853Z,11.37
2023-03-03T20:58:54.926Z,10.90
2023-03-03T21:02:12.070Z,10.60
2023-03-03T21:04:41.794Z,12.03
2023-03-03T21:07:24.267Z,10.77
2023-03-03T21:10:10.357Z,10.80
2023-03-03T21:12:37.396Z,11.17
2023-03-03T21:15:19.391Z,11.77
2023-03-03T21:17:46.635Z,10.37
2023-03-03T21:20:31.226Z,10.83
2023-03-03T21:22:59.684Z,12.43
2023-03-03T21:25:53.009Z,10.87
2023-03-03T21:28:28.687Z,11.40
2023-03-03T21:31:00.641Z,11.97
2023-03-03T21:33:50.218Z,11.20
2023-03-03T21:36:36.783Z,11.40
2023-03-03T21:39:25.393Z,10.90
2023-03-03T21:41:55.950Z,11.00
2023-03-03T21:44:32.127Z,10.80
2023-03-03T21:46:59.039Z,11.97
2023-03-03T21:49:32.602Z,11.93
2023-03-03T21:52:01.905Z,12.37
2023-03-03T21:54:28.753Z,13.03
2023-03-03T21:56:57.652Z,12.20
2023-03-03T21:59:24.478Z,11.97
2023-03-03T22:01:53.611Z,13.03
2023-03-03T22:04:20.371Z,12.20
2023-03-03T22:06:50.743Z,11.73
2023-03-03T22:09:24.545Z,11.77
2023-03-03T22:11:50.866Z,12.53
2023-03-03T22:14:20.278Z,11.40
2023-03-03T22:16:52.456Z,11.70
2023-03-03T22:19:21.805Z,11.00
2023-03-03T22:21:49.543Z,10.47
2023-03-03T22:24:26.681Z,11.43
2023-03-03T22:27:13.710Z,10.60
2023-03-03T22:29:40.218Z,10.67
2023-03-03T22:32:14.299Z,9.57
2023-03-03T22:34:42.611Z,9.40
2023-03-03T22:37:09.527Z,9.43
2023-03-03T22:39:38.891Z,9.97
2023-03-03T22:42:08.033Z,9.17
2023-03-03T22:44:45.841Z,9.10
2023-03-03T22:47:15.059Z,8.57
2023-03-03T22:49:47.747Z,7.50
2023-03-03T22:52:27.365Z,8.97
2023-03-03T22:54:53.912Z,8.33
2023-03-03T22:57:23.839Z,8.83
2023-03-03T22:59:50.732Z,8.87
2023-03-03T23:02:20.106Z,8.03
2023-03-03T23:04:46.766Z,7.93
2023-03-03T23:07:19.023Z,8.23
2023-03-03T23:09:45.564Z,8.30
2023-03-03T23:12:13.157Z,9.33
2023-03-03T23:14:43.704Z,9.17
2023-03-03T23:17:10.159Z,8.47
2023-03-03T23:19:36.568Z,8.30
2023-03-03T23:22:02.765Z,9.97
2023-03-03T23:24:29.614Z,7.53
2023-03-03T23:26:57.651Z,7.53
2023-03-03T23:29:26.598Z,8.67
2023-03-03T23:31:52.874Z,7.60
2023-03-03T23:34:19.766Z,8.20
2023-03-03T23:36:48.392Z,7.77
2023-03-03T23:39:15.945Z,8.03
2023-03-03T23:41:42.202Z,9.57
2023-03-03T23:44:08.971Z,8.47
2023-03-03T23:46:39.112Z,7.37
2023-03-03T23:49:06.223Z,7.90
2023-03-03T23:51:35.987Z,7.73
2023-03-03T23:54:02.515Z,9.50
2023-03-03T23:56:31.048Z,8.90
2023-03-03T23:59:05.053Z,8.87
